Time;durP1;ratioP1;P1;durP2;ratioP2;P2;SDS_P1;SDS_P2;PMS_P1;PMS_P2;Temp;Humidity;BMP_temperature;BMP_pressure;BME280_temperature;BME280_humidity;BME280_pressure;Samples;Min_cycle;Max_cycle;Signal;HPM_P1;HPM_P2
2021/07/28 00:01:18;;;;;;;9.90;9.00;;;21.70;99.90;;;;;;4936983;29;20449;-59
2021/07/28 00:03:44;;;;;;;10.07;9.07;;;21.70;99.90;;;;;;4936527;29;20874;-60
2021/07/28 00:06:25;;;;;;;10.20;9.20;;;21.70;99.90;;;;;;4941955;29;20456;-60
2021/07/28 00:08:51;;;;;;;8.97;8.07;;;21.50;99.90;;;;;;4955483;28;20166;-57
2021/07/28 00:11:18;;;;;;;10.00;9.10;;;21.50;99.90;;;;;;4956076;28;20416;-57
2021/07/28 00:13:46;;;;;;;9.00;8.20;;;21.50;99.90;;;;;;4957977;28;20197;-60
2021/07/28 00:16:13;;;;;;;9.30;8.40;;;21.60;99.90;;;;;;4958537;28;20415;-60
2021/07/28 00:23:56;;;;;;;8.67;7.80;;;21.40;99.90;;;;;;4955324;29;20516;-60
2021/07/28 00:26:22;;;;;;;9.20;8.30;;;21.50;99.90;;;;;;4955516;28;20927;-60
2021/07/28 00:28:48;;;;;;;9.30;8.33;;;21.60;99.90;;;;;;4955177;28;20182;-60
2021/07/28 00:31:14;;;;;;;9.70;8.80;;;21.70;99.90;;;;;;4955482;28;20428;-60
2021/07/28 00:33:39;;;;;;;9.60;8.70;;;21.60;99.90;;;;;;4955073;28;20194;-60
2021/07/28 00:36:05;;;;;;;10.00;8.90;;;21.50;99.90;;;;;;4955307;28;20182;-60
2021/07/28 00:38:30;;;;;;;10.57;9.63;;;21.30;99.90;;;;;;4954958;28;20562;-60
2021/07/28 00:40:56;;;;;;;11.77;9.73;;;21.30;99.90;;;;;;4955118;28;20174;-60
2021/07/28 00:43:25;;;;;;;10.10;8.67;;;21.20;99.90;;;;;;4955197;28;20178;-62
2021/07/28 00:45:51;;;;;;;9.57;8.67;;;21.20;99.90;;;;;;4955064;28;20177;-60
2021/07/28 00:48:17;;;;;;;10.33;9.40;;;21.20;99.90;;;;;;4953490;29;20914;-60
2021/07/28 00:50:44;;;;;;;9.90;8.97;;;21.40;99.90;;;;;;4955888;28;20468;-60
2021/07/28 00:53:18;;;;;;;8.57;7.87;;;21.50;99.90;;;;;;4955911;28;20429;-60
2021/07/28 00:55:48;;;;;;;10.07;9.07;;;21.60;99.90;;;;;;4961463;28;20471;-62
2021/07/28 00:58:15;;;;;;;8.87;7.97;;;21.40;99.90;;;;;;4978765;28;20443;-60
2021/07/28 01:00:41;;;;;;;8.90;8.20;;;21.40;99.90;;;;;;4978093;28;20511;-61
2021/07/28 01:03:08;;;;;;;8.47;7.77;;;21.30;99.90;;;;;;4978243;28;20419;-60
2021/07/28 01:05:33;;;;;;;9.20;8.30;;;21.30;99.90;;;;;;4979388;23;21033;-60
2021/07/28 01:07:59;;;;;;;9.27;8.40;;;21.30;99.90;;;;;;4958000;29;20492;-60
2021/07/28 01:10:24;;;;;;;8.33;7.53;;;21.30;99.90;;;;;;4958595;29;20232;-61
2021/07/28 01:12:54;;;;;;;8.27;7.53;;;21.20;99.90;;;;;;4958292;29;20733;-60
2021/07/28 01:18:19;;;;;;;7.80;7.10;;;21.40;99.90;;;;;;4972774;28;20460;-59
2021/07/28 01:20:46;;;;;;;9.43;8.50;;;21.30;99.90;;;;;;4977456;28;20416;-60
2021/07/28 01:23:21;;;;;;;8.87;8.07;;;21.20;99.90;;;;;;4977183;28;20541;-60
2021/07/28 01:25:48;;;;;;;9.77;8.87;;;21.40;99.90;;;;;;4977310;28;20424;-60
2021/07/28 01:28:14;;;;;;;10.27;9.37;;;21.30;99.90;;;;;;4977687;28;20901;-60
2021/07/28 01:30:40;;;;;;;11.07;10.10;;;21.30;99.90;;;;;;4977586;28;20414;-59
2021/07/28 01:33:06;;;;;;;10.40;9.50;;;21.20;99.90;;;;;;4977151;28;20443;-60
2021/07/28 01:35:35;;;;;;;8.00;7.30;;;21.20;99.90;;;;;;4976985;28;20193;-60
2021/07/28 01:38:01;;;;;;;8.77;8.07;;;21.10;99.90;;;;;;4938492;29;20966;-59
2021/07/28 01:40:26;;;;;;;8.63;7.83;;;21.00;99.90;;;;;;4952117;29;20409;-59
2021/07/28 01:42:52;;;;;;;7.87;7.17;;;21.20;99.90;;;;;;4957667;29;20409;-60
2021/07/28 01:45:17;;;;;;;8.00;7.23;;;21.20;99.90;;;;;;4957811;29;20562;-59
2021/07/28 01:47:44;;;;;;;8.30;7.60;;;21.20;99.90;;;;;;4957751;29;20178;-60
2021/07/28 01:50:11;;;;;;;9.23;8.33;;;21.30;99.90;;;;;;4957645;29;20608;-57
2021/07/28 01:52:39;;;;;;;8.37;7.67;;;21.30;99.90;;;;;;4957483;29;20409;-58
2021/07/28 01:55:09;;;;;;;10.67;9.63;;;21.30;99.90;;;;;;4957616;29;20460;-60
2021/07/28 01:57:34;;;;;;;9.33;8.40;;;21.30;99.90;;;;;;4957712;28;20444;-60
2021/07/28 02:00:00;;;;;;;9.37;8.47;;;21.30;99.90;;;;;;4958001;29;20546;-59
2021/07/28 02:02:34;;;;;;;8.87;8.17;;;21.30;99.90;;;;;;4957660;29;20170;-59
2021/07/28 02:05:00;;;;;;;9.57;8.67;;;21.20;99.90;;;;;;4956854;28;20300;-58
2021/07/28 02:07:26;;;;;;;10.60;9.50;;;21.10;99.90;;;;;;4942106;29;20426;-59
2021/07/28 02:09:52;;;;;;;8.83;8.03;;;21.20;99.90;;;;;;4938353;29;20782;-61
2021/07/28 02:12:18;;;;;;;10.40;8.53;;;21.30;99.90;;;;;;4938577;29;20186;-60
2021/07/28 02:14:43;;;;;;;8.93;8.13;;;21.10;99.90;;;;;;4938073;29;20442;-59
2021/07/28 02:17:09;;;;;;;9.03;8.33;;;21.10;99.90;;;;;;4938043;29;20182;-57
2021/07/28 02:19:35;;;;;;;9.10;8.30;;;21.10;99.90;;;;;;4937927;29;20171;-59
2021/07/28 02:22:00;;;;;;;9.70;8.90;;;21.10;99.90;;;;;;4938926;29;20250;-59
2021/07/28 02:24:26;;;;;;;10.40;9.50;;;21.00;99.90;;;;;;4937940;29;20187;-58
2021/07/28 02:26:51;;;;;;;10.00;8.57;;;20.90;99.90;;;;;;4938396;29;20266;-55
2021/07/28 02:29:17;;;;;;;8.70;7.90;;;20.80;99.90;;;;;;4938160;29;20171;-57
2021/07/28 02:31:42;;;;;;;8.20;7.47;;;20.80;99.90;;;;;;4937962;29;20222;-60
2021/07/28 02:34:08;;;;;;;7.83;7.23;;;20.80;99.90;;;;;;4937473;29;20194;-58
2021/07/28 02:36:34;;;;;;;7.73;7.13;;;20.90;99.90;;;;;;4937611;29;20202;-59
2021/07/28 02:38:59;;;;;;;7.57;6.57;;;20.90;99.90;;;;;;4937591;29;20249;-59
2021/07/28 02:41:25;;;;;;;7.13;6.47;;;20.80;99.90;;;;;;4938127;29;20248;-59
2021/07/28 02:43:50;;;;;;;7.00;6.40;;;20.80;99.90;;;;;;4938024;29;20175;-58
2021/07/28 02:46:16;;;;;;;6.03;5.53;;;20.80;99.90;;;;;;4938156;29;20167;-60
2021/07/28 02:48:41;;;;;;;5.93;5.43;;;20.90;99.90;;;;;;4937626;29;20193;-60
2021/07/28 02:51:07;;;;;;;9.83;6.43;;;20.90;99.90;;;;;;4937552;29;20706;-60
2021/07/28 02:53:33;;;;;;;7.07;6.47;;;20.90;99.90;;;;;;4937147;29;20177;-58
2021/07/28 02:55:58;;;;;;;6.53;6.03;;;20.90;99.90;;;;;;4937994;29;20190;-60
2021/07/28 02:58:24;;;;;;;7.77;7.07;;;20.90;99.90;;;;;;4937493;29;20284;-60
2021/07/28 03:00:51;;;;;;;8.03;7.33;;;20.90;99.90;;;;;;4937313;29;20640;-56
2021/07/28 03:03:17;;;;;;;6.23;5.73;;;20.80;99.90;;;;;;4937133;29;20253;-59
2021/07/28 03:05:43;;;;;;;6.40;5.90;;;20.70;99.90;;;;;;4936990;29;20465;-58
2021/07/28 03:08:08;;;;;;;7.90;7.23;;;20.60;99.90;;;;;;4937006;29;20177;-58
2021/07/28 03:10:34;;;;;;;7.27;6.67;;;20.60;99.90;;;;;;4937326;29;20697;-59
2021/07/28 03:12:59;;;;;;;7.43;6.73;;;20.50;99.90;;;;;;4937296;29;20542;-57
2021/07/28 03:15:25;;;;;;;8.03;6.90;;;20.50;99.90;;;;;;4937082;29;20198;-57
2021/07/28 03:17:50;;;;;;;7.47;6.60;;;20.40;99.90;;;;;;4935794;29;20249;-57
2021/07/28 03:20:16;;;;;;;6.47;5.87;;;20.30;99.90;;;;;;4935686;29;20171;-58
2021/07/28 03:22:42;;;;;;;8.10;7.40;;;20.20;99.90;;;;;;4937125;29;20177;-59
2021/07/28 03:25:08;;;;;;;6.83;6.23;;;20.10;99.90;;;;;;4936866;29;20253;-56
2021/07/28 03:27:33;;;;;;;9.60;6.73;;;20.00;99.90;;;;;;4937106;29;20182;-59
2021/07/28 03:29:59;;;;;;;7.27;6.30;;;19.90;99.90;;;;;;4936747;29;20408;-60
2021/07/28 03:32:25;;;;;;;7.00;6.30;;;20.10;99.90;;;;;;4936807;29;20268;-58
2021/07/28 03:34:50;;;;;;;8.33;7.60;;;20.10;99.90;;;;;;4936331;29;20277;-58
2021/07/28 03:37:16;;;;;;;7.33;6.73;;;20.00;99.90;;;;;;4951830;29;20174;-60
2021/07/28 03:39:42;;;;;;;7.40;6.80;;;20.10;99.90;;;;;;4955777;29;20170;-56
2021/07/28 03:42:07;;;;;;;6.53;6.03;;;20.10;99.90;;;;;;4955914;29;20253;-59
2021/07/28 03:44:33;;;;;;;7.63;7.00;;;20.10;99.90;;;;;;4955560;29;20232;-58
2021/07/28 03:46:59;;;;;;;6.37;5.77;;;20.20;99.90;;;;;;4955604;29;20632;-58
2021/07/28 03:49:25;;;;;;;6.23;5.67;;;20.10;99.90;;;;;;4955261;29;20409;-56
2021/07/28 03:51:50;;;;;;;8.20;6.17;;;20.10;99.90;;;;;;4955502;29;20178;-59
2021/07/28 03:54:16;;;;;;;6.37;5.77;;;20.10;99.90;;;;;;4955714;29;20257;-58
2021/07/28 03:56:41;;;;;;;6.23;5.67;;;20.20;99.90;;;;;;4955346;29;20230;-58
2021/07/28 03:59:07;;;;;;;7.60;6.70;;;20.10;99.90;;;;;;4961702;28;20262;-60
2021/07/28 04:01:32;;;;;;;7.17;6.47;;;20.10;99.90;;;;;;4975049;28;20193;-57
2021/07/28 04:03:58;;;;;;;10.03;6.10;;;20.00;99.90;;;;;;4974139;28;20276;-60
2021/07/28 04:06:24;;;;;;;7.60;6.93;;;20.10;99.90;;;;;;4960466;28;20233;-59
2021/07/28 04:08:49;;;;;;;6.80;6.20;;;20.10;99.90;;;;;;4935849;29;20166;-55
2021/07/28 04:11:15;;;;;;;6.60;5.90;;;20.00;99.90;;;;;;4936059;29;20268;-59
2021/07/28 04:13:41;;;;;;;6.93;6.33;;;20.00;99.90;;;;;;4935972;29;20600;-60
2021/07/28 04:16:06;;;;;;;7.90;7.20;;;20.10;99.90;;;;;;4936013;29;20166;-59
2021/07/28 04:18:32;;;;;;;7.57;6.87;;;20.10;99.90;;;;;;4935500;29;20565;-59
2021/07/28 04:20:57;;;;;;;7.00;6.40;;;20.00;99.90;;;;;;4935880;29;20171;-57
2021/07/28 04:23:23;;;;;;;8.00;7.30;;;20.10;99.90;;;;;;4935759;29;20177;-59
2021/07/28 04:25:49;;;;;;;7.53;6.73;;;20.00;99.90;;;;;;4935791;29;20187;-60
2021/07/28 04:28:14;;;;;;;7.70;7.00;;;20.10;99.90;;;;;;4935610;29;20217;-59
2021/07/28 04:30:40;;;;;;;8.57;6.53;;;20.10;99.90;;;;;;4935770;29;20578;-55
2021/07/28 04:33:05;;;;;;;7.50;6.80;;;19.90;99.90;;;;;;4935518;29;20174;-59
2021/07/28 04:35:31;;;;;;;8.00;7.30;;;19.90;99.90;;;;;;4935619;29;20193;-57
2021/07/28 04:37:57;;;;;;;7.73;6.87;;;19.90;99.90;;;;;;4936124;29;20703;-58
2021/07/28 04:40:22;;;;;;;7.43;6.73;;;20.00;99.90;;;;;;4935601;29;20163;-57
2021/07/28 04:42:48;;;;;;;6.70;6.10;;;20.10;99.90;;;;;;4936021;29;20688;-57
2021/07/28 04:45:14;;;;;;;7.70;7.00;;;20.20;99.90;;;;;;4935850;29;20190;-61
2021/07/28 04:47:40;;;;;;;7.17;6.47;;;20.20;99.90;;;;;;4935694;29;20595;-58
2021/07/28 04:50:06;;;;;;;7.03;6.43;;;20.20;99.90;;;;;;4935272;29;20410;-59
2021/07/28 04:52:32;;;;;;;6.80;6.23;;;20.20;99.90;;;;;;4935761;29;20322;-61
2021/07/28 04:54:57;;;;;;;7.07;6.40;;;20.20;99.90;;;;;;4935314;29;20529;-55
2021/07/28 04:57:23;;;;;;;8.30;7.60;;;20.30;99.90;;;;;;4935625;29;20171;-58
2021/07/28 04:59:48;;;;;;;7.97;7.17;;;20.40;99.90;;;;;;4935770;29;20173;-56
2021/07/28 05:02:14;;;;;;;7.30;6.60;;;20.30;99.90;;;;;;4935570;29;20591;-60
2021/07/28 05:04:40;;;;;;;7.90;7.10;;;20.30;99.90;;;;;;4935218;29;20200;-60
2021/07/28 05:07:05;;;;;;;7.40;6.70;;;20.20;99.90;;;;;;4935443;29;20225;-59
2021/07/28 05:09:31;;;;;;;7.80;7.13;;;20.30;99.90;;;;;;4934045;29;20226;-59
2021/07/28 05:11:57;;;;;;;7.23;6.47;;;20.30;99.90;;;;;;4935317;29;20206;-60
2021/07/28 05:14:22;;;;;;;7.80;7.00;;;20.50;99.90;;;;;;4935322;29;20231;-58
2021/07/28 05:16:48;;;;;;;7.27;6.67;;;20.60;99.90;;;;;;4935382;29;20177;-57
2021/07/28 05:19:13;;;;;;;6.97;6.27;;;20.70;99.90;;;;;;4935025;29;20187;-59
2021/07/28 05:21:39;;;;;;;7.17;6.57;;;20.70;99.90;;;;;;4935431;29;20541;-58
2021/07/28 05:24:05;;;;;;;7.37;6.63;;;20.70;99.90;;;;;;4935127;29;20197;-61
2021/07/28 05:26:30;;;;;;;7.10;6.50;;;20.80;99.90;;;;;;4935197;29;20171;-56
2021/07/28 05:28:56;;;;;;;7.53;6.87;;;20.80;99.90;;;;;;4940138;29;20181;-59
2021/07/28 05:31:21;;;;;;;6.80;6.20;;;20.80;99.90;;;;;;4954607;29;20181;-60
2021/07/28 05:33:47;;;;;;;7.00;6.30;;;20.80;99.90;;;;;;4953902;29;20182;-60
2021/07/28 05:36:12;;;;;;;8.20;6.40;;;20.80;99.90;;;;;;4948727;29;20241;-58
2021/07/28 05:38:38;;;;;;;6.60;6.00;;;20.90;99.90;;;;;;4934587;29;20210;-60
2021/07/28 05:41:04;;;;;;;5.50;5.00;;;21.00;99.90;;;;;;4937606;29;20186;-59
2021/07/28 05:43:30;;;;;;;7.07;6.47;;;21.10;99.90;;;;;;4938795;29;20170;-60
2021/07/28 05:45:56;;;;;;;7.40;6.70;;;21.20;99.90;;;;;;4938675;29;20802;-59
2021/07/28 05:48:21;;;;;;;6.57;5.97;;;21.30;99.90;;;;;;4938561;29;20189;-57
2021/07/28 05:50:48;;;;;;;6.90;6.30;;;21.20;99.90;;;;;;4938804;29;20269;-59
2021/07/28 05:53:14;;;;;;;6.73;6.00;;;21.10;99.90;;;;;;4938361;29;20700;-57
2021/07/28 05:55:39;;;;;;;8.13;7.40;;;21.00;99.90;;;;;;4938684;29;20516;-58
2021/07/28 05:58:05;;;;;;;6.47;5.40;;;21.00;99.90;;;;;;4938379;29;20203;-58
2021/07/28 06:00:30;;;;;;;8.03;6.60;;;21.10;99.90;;;;;;4938626;29;20249;-57
2021/07/28 06:02:56;;;;;;;8.03;6.13;;;21.00;99.90;;;;;;4938912;29;20579;-57
2021/07/28 06:05:22;;;;;;;6.23;5.50;;;21.10;99.90;;;;;;4938054;29;20249;-58
2021/07/28 06:07:47;;;;;;;7.33;6.63;;;21.30;99.90;;;;;;4938326;29;20188;-58
2021/07/28 06:10:16;;;;;;;7.70;6.37;;;21.50;99.90;;;;;;4938150;29;20179;-58
2021/07/28 06:12:42;;;;;;;10.40;6.33;;;21.50;99.90;;;;;;4938844;29;20253;-57
2021/07/28 06:15:08;;;;;;;7.67;6.50;;;21.50;99.90;;;;;;4938488;29;20979;-56
2021/07/28 06:17:34;;;;;;;6.60;6.00;;;21.50;99.90;;;;;;4938532;29;20211;-55
2021/07/28 06:19:59;;;;;;;6.23;5.63;;;21.40;99.90;;;;;;4937819;29;20849;-57
2021/07/28 06:22:25;;;;;;;6.87;6.27;;;21.20;99.90;;;;;;4938495;29;20167;-56
2021/07/28 06:24:51;;;;;;;6.43;5.83;;;21.10;99.90;;;;;;4937528;29;20201;-58
2021/07/28 06:27:17;;;;;;;6.00;5.50;;;21.10;99.90;;;;;;4938100;29;20207;-57
2021/07/28 06:29:43;;;;;;;6.87;6.27;;;21.20;99.90;;;;;;4938189;29;20179;-57
2021/07/28 06:32:08;;;;;;;7.70;6.87;;;21.00;99.90;;;;;;4938077;29;20411;-58
2021/07/28 06:34:34;;;;;;;7.17;6.43;;;20.80;99.90;;;;;;4937493;29;20197;-56
2021/07/28 06:36:59;;;;;;;6.40;5.90;;;21.10;99.90;;;;;;4937865;29;20193;-57
2021/07/28 06:39:26;;;;;;;6.10;5.50;;;21.20;99.90;;;;;;4938117;29;20571;-60
2021/07/28 06:41:52;;;;;;;7.03;6.43;;;21.20;99.90;;;;;;4938378;29;20257;-58
2021/07/28 06:44:17;;;;;;;6.23;5.73;;;21.20;99.90;;;;;;4938002;29;20470;-60
2021/07/28 06:46:43;;;;;;;6.43;5.83;;;21.30;99.90;;;;;;4937967;29;20170;-59
2021/07/28 06:49:09;;;;;;;6.90;6.30;;;21.20;99.90;;;;;;4938472;29;20189;-59
2021/07/28 06:51:34;;;;;;;11.27;10.17;;;21.30;99.90;;;;;;4959215;28;20181;-58
2021/07/28 06:54:00;;;;;;;6.93;6.23;;;21.30;99.90;;;;;;4975139;28;20209;-59
2021/07/28 06:56:25;;;;;;;6.13;5.60;;;21.30;99.90;;;;;;4975639;28;20184;-58
2021/07/28 06:58:51;;;;;;;6.97;6.37;;;21.40;99.90;;;;;;4975787;28;20204;-57
2021/07/28 07:01:16;;;;;;;8.10;7.30;;;21.30;99.90;;;;;;4975745;28;20177;-58
2021/07/28 07:03:42;;;;;;;7.37;6.00;;;21.30;99.90;;;;;;4975497;28;20181;-58
2021/07/28 07:06:08;;;;;;;7.40;6.73;;;21.20;99.90;;;;;;5003093;23;20237;-60
2021/07/28 07:08:33;;;;;;;7.13;6.53;;;21.00;99.90;;;;;;4991200;28;20259;-60
2021/07/28 07:10:59;;;;;;;7.20;6.50;;;21.10;99.90;;;;;;4995151;28;20570;-60
2021/07/28 07:13:24;;;;;;;6.47;5.87;;;21.20;99.90;;;;;;4995080;28;20252;-60
2021/07/28 07:15:51;;;;;;;6.23;5.63;;;21.10;99.90;;;;;;4980937;28;20627;-60
2021/07/28 07:18:17;;;;;;;6.63;6.03;;;21.20;99.90;;;;;;4975390;28;20193;-60
2021/07/28 07:20:43;;;;;;;8.47;7.67;;;21.30;99.90;;;;;;4975271;28;20409;-58
2021/07/28 07:23:09;;;;;;;7.03;6.30;;;21.30;99.90;;;;;;4975638;28;20818;-58
2021/07/28 07:25:35;;;;;;;6.50;5.73;;;21.30;99.90;;;;;;4975509;28;20185;-60
2021/07/28 07:28:04;;;;;;;7.00;6.30;;;21.30;99.90;;;;;;4975497;28;20401;-60
2021/07/28 07:30:30;;;;;;;6.97;6.27;;;21.30;99.90;;;;;;4975327;28;20170;-60
2021/07/28 07:35:41;;;;;;;7.07;6.40;;;21.50;99.90;;;;;;4975737;28;20427;-59
2021/07/28 07:38:06;;;;;;;7.70;7.00;;;21.30;99.90;;;;;;4975294;28;20441;-60
2021/07/28 07:40:32;;;;;;;6.93;6.23;;;21.30;99.90;;;;;;4974854;28;20170;-60
2021/07/28 07:42:57;;;;;;;7.13;6.53;;;21.30;99.90;;;;;;4975196;28;20207;-60
2021/07/28 07:45:23;;;;;;;7.73;7.00;;;21.50;99.90;;;;;;4975042;28;20209;-60
2021/07/28 07:47:49;;;;;;;6.63;5.83;;;21.70;99.90;;;;;;4975328;28;20174;-60
2021/07/28 07:50:14;;;;;;;9.60;6.83;;;21.70;99.90;;;;;;4974871;28;20252;-60
2021/07/28 07:52:40;;;;;;;6.33;5.80;;;21.30;99.90;;;;;;4974952;28;20622;-60
2021/07/28 07:55:06;;;;;;;7.13;6.53;;;21.50;99.90;;;;;;4974695;28;20189;-60
2021/07/28 07:57:32;;;;;;;9.07;6.30;;;21.60;99.90;;;;;;4975084;28;20604;-60
2021/07/28 07:59:58;;;;;;;7.30;6.67;;;21.60;99.90;;;;;;4969060;28;20536;-61
2021/07/28 08:02:24;;;;;;;7.20;6.50;;;21.50;99.90;;;;;;4953529;28;20504;-60
2021/07/28 08:04:49;;;;;;;6.30;5.70;;;21.50;99.90;;;;;;4955151;28;20532;-58
2021/07/28 08:07:15;;;;;;;8.37;7.67;;;21.40;99.90;;;;;;4969664;28;20319;-60
2021/07/28 08:09:41;;;;;;;6.80;6.10;;;21.20;99.90;;;;;;4974720;28;20197;-60
2021/07/28 08:12:06;;;;;;;7.10;6.30;;;21.20;99.90;;;;;;4974610;28;20252;-61
2021/07/28 08:14:32;;;;;;;7.90;7.10;;;21.30;99.90;;;;;;4968710;28;20197;-59
2021/07/28 08:16:57;;;;;;;6.87;6.27;;;21.30;99.90;;;;;;4975292;28;20699;-60
2021/07/28 08:19:23;;;;;;;6.50;5.90;;;21.10;99.90;;;;;;4974666;28;20263;-59
2021/07/28 08:21:49;;;;;;;7.20;6.50;;;21.20;99.90;;;;;;4974779;28;20167;-59
2021/07/28 08:24:16;;;;;;;7.73;6.80;;;21.30;99.90;;;;;;4974178;28;20508;-59
2021/07/28 08:26:42;;;;;;;10.17;7.90;;;21.20;99.90;;;;;;4974603;28;20261;-59
2021/07/28 08:29:08;;;;;;;6.83;6.20;;;21.00;99.90;;;;;;4974670;28;20444;-60
2021/07/28 08:31:34;;;;;;;6.30;5.80;;;21.10;99.90;;;;;;4974395;28;20174;-60
2021/07/28 08:33:59;;;;;;;6.20;5.67;;;21.30;99.90;;;;;;4974093;28;20173;-60
2021/07/28 08:36:25;;;;;;;6.90;5.87;;;21.50;99.90;;;;;;4974428;28;20674;-59
2021/07/28 08:38:50;;;;;;;7.03;6.40;;;21.60;99.90;;;;;;4974302;28;20197;-60
2021/07/28 08:41:22;;;;;;;7.00;6.30;;;21.50;99.90;;;;;;4974414;28;20173;-60
2021/07/28 08:43:53;;;;;;;7.27;6.67;;;21.50;99.90;;;;;;4974581;28;20544;-60
2021/07/28 08:46:23;;;;;;;7.30;6.57;;;21.40;99.90;;;;;;4974561;28;20428;-60
2021/07/28 08:48:49;;;;;;;6.67;6.07;;;21.40;99.90;;;;;;4973979;28;20910;-60
2021/07/28 08:51:16;;;;;;;6.30;5.70;;;21.60;99.90;;;;;;4974347;28;20408;-59
2021/07/28 08:53:42;;;;;;;7.50;6.77;;;21.60;99.90;;;;;;4974061;28;20200;-60
2021/07/28 08:56:09;;;;;;;6.53;5.93;;;21.60;99.90;;;;;;4974386;28;20519;-60
2021/07/28 08:58:34;;;;;;;8.57;6.60;;;21.70;99.90;;;;;;4974094;28;20535;-60
2021/07/28 09:01:00;;;;;;;6.70;6.10;;;21.70;99.90;;;;;;4974390;28;20544;-60
2021/07/28 09:03:26;;;;;;;6.20;5.70;;;21.90;99.90;;;;;;4974422;28;20201;-59
2021/07/28 09:05:59;;;;;;;6.60;6.00;;;21.90;99.90;;;;;;4973571;28;20253;-60
2021/07/28 09:08:28;;;;;;;8.17;6.77;;;22.10;99.90;;;;;;4974188;28;20185;-60
2021/07/28 09:11:00;;;;;;;5.77;5.27;;;22.00;99.90;;;;;;4974425;28;20552;-60
2021/07/28 09:13:36;;;;;;;6.03;5.43;;;22.10;99.90;;;;;;4974500;28;20761;-60
2021/07/28 09:16:08;;;;;;;6.93;6.23;;;22.30;99.90;;;;;;4976815;28;20431;-60
2021/07/28 09:18:38;;;;;;;7.27;6.27;;;22.40;99.90;;;;;;4977842;28;20432;-60
2021/07/28 09:21:25;;;;;;;8.40;6.37;;;22.60;99.90;;;;;;4977743;28;20413;-60
2021/07/28 09:23:55;;;;;;;5.73;5.13;;;22.40;99.90;;;;;;4977298;28;20420;-60
2021/07/28 09:26:39;;;;;;;5.30;4.80;;;22.60;99.90;;;;;;4977910;28;20439;-60
2021/07/28 09:29:11;;;;;;;5.07;4.53;;;22.70;99.90;;;;;;4977786;28;20842;-59
2021/07/28 09:31:38;;;;;;;5.67;5.17;;;22.90;99.90;;;;;;4977637;28;20927;-60
2021/07/28 09:34:26;;;;;;;6.37;5.73;;;22.90;99.90;;;;;;4977609;28;20408;-60
2021/07/28 09:36:56;;;;;;;6.03;5.20;;;22.50;99.90;;;;;;4977409;28;20409;-60
2021/07/28 09:39:22;;;;;;;6.87;6.17;;;22.40;99.90;;;;;;4977121;28;20526;-60
2021/07/28 09:41:48;;;;;;;4.67;4.27;;;22.70;99.90;;;;;;4977709;28;20412;-60
2021/07/28 09:44:25;;;;;;;5.53;5.03;;;22.70;99.90;;;;;;4977347;28;20780;-59
2021/07/28 09:47:08;;;;;;;6.10;5.60;;;23.00;99.90;;;;;;4977695;28;20161;-58
2021/07/28 09:49:35;;;;;;;6.20;5.67;;;22.80;99.90;;;;;;4977364;28;20401;-60
2021/07/28 09:52:29;;;;;;;7.30;5.67;;;22.90;99.90;;;;;;4977866;28;20413;-58
2021/07/28 09:54:57;;;;;;;6.70;6.10;;;23.00;99.90;;;;;;4977085;28;20433;-59
2021/07/28 09:57:24;;;;;;;5.70;5.17;;;23.00;99.90;;;;;;4976390;28;20572;-60
2021/07/28 10:00:05;;;;;;;7.40;5.23;;;22.90;99.90;;;;;;4966703;28;20427;-59
2021/07/28 10:02:34;;;;;;;6.93;5.90;;;23.00;99.90;;;;;;4977694;28;20408;-57
2021/07/28 10:05:02;;;;;;;6.00;5.17;;;22.90;99.90;;;;;;4978004;28;20619;-60
2021/07/28 10:07:30;;;;;;;5.73;5.23;;;23.10;99.90;;;;;;4978789;28;20548;-60
2021/07/28 10:10:11;;;;;;;6.23;4.80;;;23.40;99.90;;;;;;4972505;28;20413;-58
2021/07/28 10:12:38;;;;;;;5.50;5.00;;;23.60;99.90;;;;;;4958310;28;20405;-59
2021/07/28 10:15:06;;;;;;;6.17;5.57;;;23.50;99.90;;;;;;4958047;28;20472;-60
2021/07/28 10:17:38;;;;;;;5.83;5.30;;;23.50;99.90;;;;;;4956055;29;20437;-63
2021/07/28 10:20:04;;;;;;;5.23;4.73;;;23.50;99.90;;;;;;4957334;28;20492;-60
2021/07/28 10:22:31;;;;;;;5.30;4.63;;;23.30;99.90;;;;;;4957613;28;20907;-58
2021/07/28 10:24:58;;;;;;;5.53;4.50;;;23.30;99.90;;;;;;4957148;28;20426;-60
2021/07/28 10:27:24;;;;;;;5.67;4.57;;;23.30;99.90;;;;;;4957088;28;20461;-60
2021/07/28 10:29:50;;;;;;;4.90;4.40;;;23.40;99.90;;;;;;4956663;28;20433;-60
2021/07/28 10:32:33;;;;;;;4.63;4.23;;;23.50;99.90;;;;;;4957535;29;20406;-60
2021/07/28 10:35:20;;;;;;;5.40;4.90;;;24.00;99.90;;;;;;4957013;29;20927;-58
2021/07/28 10:37:46;;;;;;;5.20;4.33;;;24.20;99.90;;;;;;4975226;28;20507;-60
2021/07/28 10:40:23;;;;;;;6.90;5.77;;;24.30;99.90;;;;;;4976161;28;20413;-60
2021/07/28 10:42:49;;;;;;;6.43;4.40;;;24.40;99.90;;;;;;4973203;28;20914;-60
2021/07/28 10:45:18;;;;;;;8.10;5.00;;;23.60;99.90;;;;;;4976253;28;20515;-60
2021/07/28 10:47:45;;;;;;;6.00;5.30;;;23.50;99.90;;;;;;4976532;28;20616;-59
2021/07/28 10:50:25;;;;;;;4.90;4.50;;;23.40;99.90;;;;;;4975804;28;20975;-60
2021/07/28 10:52:58;;;;;;;5.43;4.90;;;23.40;99.90;;;;;;4976729;28;20779;-60
2021/07/28 10:55:27;;;;;;;5.63;5.13;;;23.30;99.90;;;;;;4974888;28;20433;-60
2021/07/28 10:57:56;;;;;;;5.73;5.13;;;23.50;99.90;;;;;;4976146;28;21038;-61
2021/07/28 11:00:39;;;;;;;5.73;4.97;;;23.80;99.90;;;;;;4976319;28;20463;-60
2021/07/28 11:03:13;;;;;;;5.33;4.93;;;23.60;99.90;;;;;;4975896;28;20408;-60
2021/07/28 11:05:43;;;;;;;5.53;5.00;;;23.70;99.90;;;;;;4975405;28;20444;-60
2021/07/28 11:08:09;;;;;;;5.40;4.90;;;23.60;99.90;;;;;;4976056;28;20551;-60
2021/07/28 11:10:40;;;;;;;5.30;4.80;;;23.60;99.90;;;;;;4975726;28;20423;-60
2021/07/28 11:13:10;;;;;;;5.20;4.60;;;23.70;99.90;;;;;;4975859;28;20421;-60
2021/07/28 11:15:36;;;;;;;5.17;4.60;;;23.90;99.90;;;;;;4975680;28;20431;-60
2021/07/28 11:18:03;;;;;;;6.93;4.53;;;23.70;99.90;;;;;;4975708;28;20934;-60
2021/07/28 11:20:38;;;;;;;5.60;5.10;;;23.70;99.90;;;;;;4975424;28;20451;-60
2021/07/28 11:23:25;;;;;;;5.80;5.30;;;24.00;99.90;;;;;;4976124;28;20401;-60
2021/07/28 11:25:52;;;;;;;5.50;4.40;;;24.00;99.90;;;;;;4975183;28;21008;-60
2021/07/28 11:28:21;;;;;;;5.87;5.27;;;24.10;99.90;;;;;;4975830;28;20413;-60
2021/07/28 11:31:00;;;;;;;4.80;4.10;;;24.60;99.90;;;;;;4975488;28;20420;-60
2021/07/28 11:33:28;;;;;;;4.97;4.57;;;26.00;99.90;;;;;;4975763;28;20413;-60
2021/07/28 11:35:55;;;;;;;4.60;4.17;;;27.10;99.90;;;;;;4975427;28;20923;-60
2021/07/28 11:38:22;;;;;;;4.60;4.20;;;27.60;99.90;;;;;;4974344;28;20814;-61
2021/07/28 11:40:58;;;;;;;6.20;5.00;;;28.00;99.90;;;;;;4975620;28;20409;-60
2021/07/28 11:43:28;;;;;;;5.50;5.07;;;28.30;99.20;;;;;;4975552;28;20439;-60
2021/07/28 11:45:58;;;;;;;5.10;4.60;;;29.60;97.80;;;;;;4975201;28;20425;-61
2021/07/28 11:48:37;;;;;;;5.53;4.47;;;30.60;96.20;;;;;;4975539;28;20732;-61
2021/07/28 11:51:10;;;;;;;4.40;4.00;;;31.20;93.40;;;;;;4974888;28;20381;-61
2021/07/28 11:53:37;;;;;;;4.53;4.10;;;30.60;93.50;;;;;;4975397;28;20484;-61
2021/07/28 11:56:09;;;;;;;4.47;4.10;;;31.00;94.40;;;;;;4974699;28;20433;-61
2021/07/28 11:58:40;;;;;;;4.40;4.00;;;31.00;93.20;;;;;;4974827;28;20483;-61
2021/07/28 12:01:21;;;;;;;4.23;3.93;;;29.80;93.20;;;;;;4975432;28;20435;-60
2021/07/28 12:03:51;;;;;;;5.20;4.70;;;29.30;94.30;;;;;;4975037;28;20417;-59
2021/07/28 12:06:38;;;;;;;5.83;4.33;;;28.00;96.20;;;;;;4974273;28;20452;-58
2021/07/28 12:09:04;;;;;;;5.93;4.87;;;29.20;95.20;;;;;;4975326;28;20771;-63
2021/07/28 12:11:52;;;;;;;4.80;4.33;;;30.30;95.60;;;;;;4975123;28;20409;-60
2021/07/28 12:14:29;;;;;;;4.80;4.17;;;31.30;94.80;;;;;;4975055;28;20407;-61
2021/07/28 12:17:00;;;;;;;5.50;4.13;;;31.40;92.70;;;;;;4974890;28;20954;-60
2021/07/28 12:19:29;;;;;;;6.87;4.30;;;30.60;91.80;;;;;;4974755;28;20444;-61
2021/07/28 12:22:00;;;;;;;5.30;4.73;;;30.80;93.20;;;;;;4975144;28;20409;-61
2021/07/28 12:24:39;;;;;;;4.40;4.00;;;30.30;92.20;;;;;;4974818;28;21791;-61
2021/07/28 12:27:27;;;;;;;4.23;3.83;;;30.90;91.30;;;;;;4975180;28;20393;-60
2021/07/28 12:30:03;;;;;;;3.80;3.50;;;31.30;91.90;;;;;;4974801;28;20488;-61
2021/07/28 12:32:43;;;;;;;4.20;3.90;;;32.80;88.40;;;;;;4975012;28;20452;-61
2021/07/28 12:35:21;;;;;;;4.33;3.93;;;33.10;84.70;;;;;;4974416;28;20420;-59
2021/07/28 12:38:18;;;;;;;4.00;3.60;;;32.60;84.00;;;;;;4974307;28;20444;-61
2021/07/28 12:40:45;;;;;;;4.40;4.00;;;34.00;87.30;;;;;;4974134;28;20894;-61
2021/07/28 12:43:11;;;;;;;3.70;3.40;;;34.50;80.50;;;;;;4974716;28;20419;-61
2021/07/28 12:45:38;;;;;;;4.20;3.90;;;34.00;79.20;;;;;;4974589;28;20503;-61
2021/07/28 12:48:04;;;;;;;4.77;4.10;;;35.00;79.90;;;;;;4974618;28;20491;-61
2021/07/28 12:50:31;;;;;;;4.20;3.80;;;35.40;76.60;;;;;;4972382;28;20799;-61
2021/07/28 12:52:57;;;;;;;4.40;3.97;;;35.90;75.60;;;;;;4965361;28;20515;-59
2021/07/28 12:55:23;;;;;;;5.30;3.87;;;34.90;74.70;;;;;;4973984;28;20515;-59
2021/07/28 12:57:49;;;;;;;4.40;4.00;;;34.60;74.70;;;;;;4974507;28;20189;-60
2021/07/28 13:00:15;;;;;;;4.20;3.90;;;33.90;76.10;;;;;;4974578;28;20208;-61